Time;durP1;ratioP1;P1;durP2;ratioP2;P2;SDS_P1;SDS_P2;PMS_P1;PMS_P2;Temp;Humidity;BMP_temperature;BMP_pressure;BME280_temperature;BME280_humidity;BME280_pressure;Samples;Min_cycle;Max_cycle;Signal;HPM_P1;HPM_P2
2023/05/25 00:01:57;;;;;;;8.37;5.40;;;24.80;61.80;;;;;;5056608;28;20467;-65
2023/05/25 00:04:29;;;;;;;5.80;4.60;;;24.80;61.80;;;;;;5075347;28;20457;-65
2023/05/25 00:06:57;;;;;;;7.17;4.67;;;24.80;61.80;;;;;;5053498;28;20958;-65
2023/05/25 00:09:25;;;;;;;8.33;4.83;;;24.80;61.80;;;;;;5068838;28;20467;-65
2023/05/25 00:11:54;;;;;;;5.90;4.33;;;24.80;61.80;;;;;;5070870;28;20839;-66
2023/05/25 00:14:23;;;;;;;5.80;4.70;;;24.80;61.80;;;;;;5070545;28;20470;-65
2023/05/25 00:16:51;;;;;;;6.77;4.50;;;24.80;61.70;;;;;;5070215;28;20460;-65
2023/05/25 00:19:22;;;;;;;7.23;4.87;;;24.80;61.70;;;;;;5070909;28;20468;-65
2023/05/25 00:21:51;;;;;;;6.43;4.27;;;24.80;61.70;;;;;;5073936;28;20469;-66
2023/05/25 00:24:19;;;;;;;5.30;4.60;;;24.80;61.70;;;;;;5053005;28;20485;-65
2023/05/25 00:26:47;;;;;;;7.63;4.90;;;24.80;61.70;;;;;;5070187;28;20497;-65
2023/05/25 00:29:15;;;;;;;5.90;4.13;;;24.70;61.70;;;;;;5079071;28;20447;-65
2023/05/25 00:31:44;;;;;;;6.90;4.40;;;24.70;61.70;;;;;;5056915;28;21021;-65
2023/05/25 00:34:12;;;;;;;4.33;3.87;;;24.70;61.70;;;;;;5070364;28;20481;-65
2023/05/25 00:36:42;;;;;;;5.80;4.20;;;24.70;61.70;;;;;;5063546;28;20459;-65
2023/05/25 00:39:10;;;;;;;6.47;4.50;;;24.70;61.80;;;;;;5048481;28;20473;-66
2023/05/25 00:41:40;;;;;;;6.40;4.43;;;24.70;61.70;;;;;;5069711;28;20449;-65
2023/05/25 00:44:09;;;;;;;6.40;4.47;;;24.70;61.70;;;;;;5062660;28;20461;-68
2023/05/25 00:46:38;;;;;;;5.00;4.47;;;24.70;61.70;;;;;;5071650;28;20458;-68
2023/05/25 00:49:06;;;;;;;5.63;4.90;;;24.70;61.70;;;;;;5070207;28;20600;-67
2023/05/25 00:51:35;;;;;;;4.90;4.10;;;24.70;61.70;;;;;;5062179;28;20454;-67
2023/05/25 00:54:05;;;;;;;5.70;4.80;;;24.70;61.70;;;;;;5076533;28;20477;-68
2023/05/25 00:56:38;;;;;;;4.87;3.60;;;24.70;61.70;;;;;;5050186;28;20461;-67
2023/05/25 00:59:07;;;;;;;4.70;4.40;;;24.70;61.70;;;;;;5052891;28;20955;-68
2023/05/25 01:01:39;;;;;;;5.10;4.10;;;24.70;61.70;;;;;;5063455;28;21064;-68
2023/05/25 01:04:09;;;;;;;4.70;4.20;;;24.70;61.70;;;;;;5070079;28;20451;-69
2023/05/25 01:06:41;;;;;;;4.93;4.50;;;24.70;61.70;;;;;;5052585;28;20470;-69
2023/05/25 01:09:13;;;;;;;4.30;3.70;;;24.60;61.70;;;;;;5068596;28;20460;-68
2023/05/25 01:11:44;;;;;;;4.80;4.13;;;24.60;61.70;;;;;;5073738;28;20981;-68
2023/05/25 01:14:13;;;;;;;7.03;4.10;;;24.60;61.70;;;;;;5050259;28;20480;-68
2023/05/25 01:16:42;;;;;;;4.53;4.07;;;24.60;61.70;;;;;;5071234;28;20451;-67
2023/05/25 01:19:11;;;;;;;5.00;4.20;;;24.60;61.70;;;;;;5055974;28;20842;-68
2023/05/25 01:21:46;;;;;;;4.60;4.17;;;24.60;61.70;;;;;;5073734;28;20962;-68
2023/05/25 01:24:22;;;;;;;6.03;3.80;;;24.60;61.60;;;;;;5065750;28;20445;-68
2023/05/25 01:26:55;;;;;;;6.13;5.17;;;24.60;61.60;;;;;;5045933;28;21018;-68
2023/05/25 01:29:25;;;;;;;5.10;4.33;;;24.60;61.60;;;;;;5073629;28;20527;-68
2023/05/25 01:31:55;;;;;;;4.40;4.00;;;24.60;61.60;;;;;;5068812;28;20503;-68
2023/05/25 01:34:24;;;;;;;7.33;4.20;;;24.60;61.60;;;;;;5064568;28;21062;-68
2023/05/25 01:36:55;;;;;;;5.50;3.70;;;24.60;61.60;;;;;;5067125;28;20488;-69
2023/05/25 01:39:23;;;;;;;4.03;3.63;;;24.60;61.60;;;;;;5066328;28;20461;-68
2023/05/25 01:41:52;;;;;;;4.23;3.63;;;24.60;61.60;;;;;;5046923;28;20466;-68
2023/05/25 01:44:20;;;;;;;4.47;3.90;;;24.60;61.60;;;;;;5073771;28;20869;-65
2023/05/25 01:46:53;;;;;;;4.17;3.83;;;24.60;61.60;;;;;;5076210;28;20518;-68
2023/05/25 01:49:28;;;;;;;4.47;4.07;;;24.60;61.60;;;;;;5075120;28;20467;-68
2023/05/25 01:52:05;;;;;;;4.13;3.83;;;24.60;61.60;;;;;;5054622;28;20463;-68
2023/05/25 01:54:39;;;;;;;4.47;4.07;;;24.60;61.60;;;;;;5072179;28;20484;-68
2023/05/25 01:57:12;;;;;;;4.57;4.17;;;24.60;61.60;;;;;;5055790;28;20454;-68
2023/05/25 01:59:44;;;;;;;4.00;3.70;;;24.60;61.60;;;;;;5052217;28;20469;-68
2023/05/25 02:02:14;;;;;;;4.07;3.27;;;24.60;61.50;;;;;;5072078;28;20491;-68
2023/05/25 02:04:42;;;;;;;4.80;3.63;;;24.60;61.50;;;;;;5055542;28;20852;-68
2023/05/25 02:07:12;;;;;;;4.67;4.27;;;24.60;61.50;;;;;;5052478;28;20450;-70
2023/05/25 02:09:40;;;;;;;5.90;4.37;;;24.60;61.50;;;;;;5056035;28;20478;-68
2023/05/25 02:12:09;;;;;;;4.17;3.53;;;24.60;61.50;;;;;;5053908;28;20963;-68
2023/05/25 02:14:37;;;;;;;6.00;4.60;;;24.50;61.50;;;;;;5071349;28;20505;-68
2023/05/25 02:17:06;;;;;;;6.40;3.97;;;24.60;61.50;;;;;;5054524;28;20473;-68
2023/05/25 02:19:35;;;;;;;4.50;3.67;;;24.60;61.50;;;;;;5054811;28;20458;-68
2023/05/25 02:22:04;;;;;;;4.50;4.10;;;24.60;61.50;;;;;;5069639;28;20456;-67
2023/05/25 02:24:34;;;;;;;3.90;3.53;;;24.60;61.50;;;;;;5054353;28;20467;-67
2023/05/25 02:27:03;;;;;;;5.30;4.33;;;24.60;61.40;;;;;;5072627;28;20554;-67
2023/05/25 02:29:31;;;;;;;5.30;3.50;;;24.60;61.40;;;;;;5052589;28;20458;-67
2023/05/25 02:32:00;;;;;;;4.47;3.00;;;24.60;61.40;;;;;;5077835;28;20487;-67
2023/05/25 02:34:29;;;;;;;4.73;4.33;;;24.60;61.40;;;;;;5057301;28;20590;-68
2023/05/25 02:36:57;;;;;;;5.73;3.47;;;24.60;61.40;;;;;;5052978;28;20792;-68
2023/05/25 02:39:27;;;;;;;4.70;3.47;;;24.50;61.40;;;;;;5053656;28;20479;-68
2023/05/25 02:41:58;;;;;;;4.67;4.27;;;24.50;61.40;;;;;;5052398;28;20503;-67
2023/05/25 02:44:27;;;;;;;4.07;3.73;;;24.50;61.40;;;;;;5053798;28;20462;-68
2023/05/25 02:46:55;;;;;;;4.20;3.47;;;24.50;61.40;;;;;;5071142;28;20463;-68
2023/05/25 02:49:23;;;;;;;3.50;3.20;;;24.50;61.40;;;;;;5054515;28;20958;-67
2023/05/25 02:51:53;;;;;;;4.70;4.17;;;24.50;61.40;;;;;;5053439;28;20542;-68
2023/05/25 02:54:21;;;;;;;3.53;3.23;;;24.50;61.40;;;;;;5054235;28;20505;-68
2023/05/25 02:56:49;;;;;;;3.60;3.30;;;24.50;61.30;;;;;;5071468;28;20481;-68
2023/05/25 02:59:20;;;;;;;3.90;3.60;;;24.50;61.30;;;;;;5052309;28;20494;-68
2023/05/25 03:01:48;;;;;;;3.70;3.40;;;24.50;61.30;;;;;;5047483;28;20844;-68
2023/05/25 03:04:17;;;;;;;4.23;3.40;;;24.50;61.30;;;;;;5054111;28;20493;-67
2023/05/25 03:06:46;;;;;;;5.33;3.40;;;24.50;61.30;;;;;;5059730;28;20463;-67
2023/05/25 03:09:18;;;;;;;4.03;3.67;;;24.50;61.30;;;;;;5053147;28;20487;-67
2023/05/25 03:11:49;;;;;;;5.13;4.07;;;24.50;61.30;;;;;;5054991;28;20451;-67
2023/05/25 03:14:21;;;;;;;4.23;3.90;;;24.50;61.30;;;;;;5052904;28;20921;-68
2023/05/25 03:16:55;;;;;;;5.53;4.00;;;24.50;61.30;;;;;;5045909;28;20485;-68
2023/05/25 03:19:24;;;;;;;4.07;3.50;;;24.50;61.30;;;;;;5053672;28;20451;-68
2023/05/25 03:21:52;;;;;;;4.03;3.60;;;24.50;61.30;;;;;;5071869;28;20516;-68
2023/05/25 03:24:21;;;;;;;4.83;4.43;;;24.50;61.30;;;;;;5060621;28;20477;-68
2023/05/25 03:26:49;;;;;;;4.70;4.30;;;24.50;61.30;;;;;;5052453;28;20494;-68
2023/05/25 03:29:18;;;;;;;5.03;4.33;;;24.40;61.30;;;;;;5052006;28;20469;-68
2023/05/25 03:31:47;;;;;;;4.00;3.70;;;24.40;61.30;;;;;;5071353;28;20530;-68
2023/05/25 03:34:16;;;;;;;3.87;3.33;;;24.40;61.30;;;;;;5052979;28;20468;-68
2023/05/25 03:36:46;;;;;;;3.97;3.57;;;24.40;61.30;;;;;;5071193;28;20562;-67
2023/05/25 03:39:16;;;;;;;4.33;3.93;;;24.40;61.30;;;;;;5053130;28;20992;-67
2023/05/25 03:41:45;;;;;;;4.43;4.03;;;24.40;61.30;;;;;;5071322;28;21010;-68
2023/05/25 03:44:14;;;;;;;3.43;3.20;;;24.40;61.30;;;;;;5052345;28;20521;-67
2023/05/25 03:46:43;;;;;;;5.20;3.60;;;24.40;61.30;;;;;;5051811;28;20464;-68
2023/05/25 03:49:14;;;;;;;3.40;3.10;;;24.40;61.20;;;;;;5054347;28;20861;-68
2023/05/25 03:51:43;;;;;;;3.97;3.67;;;24.40;61.30;;;;;;5072550;28;20531;-68
2023/05/25 03:54:13;;;;;;;5.10;4.60;;;24.40;61.30;;;;;;5043686;28;20476;-68
2023/05/25 03:56:41;;;;;;;3.70;3.40;;;24.40;61.30;;;;;;5070741;28;20478;-68
2023/05/25 03:59:09;;;;;;;4.37;3.97;;;24.40;61.20;;;;;;5070151;28;20562;-68
2023/05/25 04:01:38;;;;;;;6.93;3.87;;;24.40;61.30;;;;;;5051346;28;20468;-68
2023/05/25 04:04:07;;;;;;;3.53;3.23;;;24.40;61.20;;;;;;5036494;28;20468;-68
2023/05/25 04:06:38;;;;;;;7.13;4.53;;;24.40;61.20;;;;;;5052918;28;20483;-68
2023/05/25 04:09:07;;;;;;;4.37;3.87;;;24.40;61.20;;;;;;5070567;28;20483;-68
2023/05/25 04:11:35;;;;;;;5.50;3.90;;;24.40;61.20;;;;;;5071756;28;20454;-68
2023/05/25 04:14:04;;;;;;;6.00;3.97;;;24.40;61.20;;;;;;5049813;28;20467;-68
2023/05/25 04:16:36;;;;;;;4.40;4.10;;;24.40;61.20;;;;;;5053044;28;20473;-68
2023/05/25 04:19:04;;;;;;;3.40;3.10;;;24.40;61.20;;;;;;5052865;28;20465;-69
2023/05/25 04:21:33;;;;;;;3.50;3.10;;;24.40;61.20;;;;;;5052423;28;20468;-68
2023/05/25 04:24:03;;;;;;;3.67;3.37;;;24.40;61.20;;;;;;5069008;28;20471;-68
2023/05/25 04:26:31;;;;;;;3.53;3.23;;;24.40;61.20;;;;;;5060480;28;20489;-68
2023/05/25 04:29:01;;;;;;;3.87;3.57;;;24.40;61.20;;;;;;5053639;28;20548;-67
2023/05/25 04:31:53;;;;;;;4.03;3.63;;;24.40;61.20;;;;;;5067738;28;20979;-68
2023/05/25 04:34:43;;;;;;;4.10;3.70;;;24.40;61.20;;;;;;5058395;28;20491;-68
2023/05/25 04:37:17;;;;;;;5.23;3.60;;;24.40;61.20;;;;;;5048924;28;20484;-68
2023/05/25 04:39:47;;;;;;;3.80;3.50;;;24.40;61.20;;;;;;5063319;28;20514;-69
2023/05/25 04:42:15;;;;;;;4.53;4.07;;;24.40;61.20;;;;;;5057404;28;20468;-68
2023/05/25 04:44:44;;;;;;;4.27;3.40;;;24.40;61.20;;;;;;5048202;28;21032;-67
2023/05/25 04:47:12;;;;;;;4.20;3.80;;;24.40;61.20;;;;;;5054451;28;20463;-67
2023/05/25 04:49:41;;;;;;;5.40;4.37;;;24.40;61.20;;;;;;5063475;28;20471;-67
2023/05/25 04:52:09;;;;;;;4.03;3.73;;;24.40;61.10;;;;;;5066864;28;20519;-68
2023/05/25 04:54:38;;;;;;;4.10;3.30;;;24.40;61.10;;;;;;5054999;28;21186;-67
2023/05/25 04:57:09;;;;;;;3.93;3.43;;;24.40;61.20;;;;;;5049970;28;20486;-67
2023/05/25 04:59:37;;;;;;;6.87;4.37;;;24.40;61.20;;;;;;5051274;28;20460;-67
2023/05/25 05:02:07;;;;;;;5.60;4.27;;;24.40;61.50;;;;;;5044963;28;20955;-69
2023/05/25 05:04:36;;;;;;;7.90;3.90;;;24.40;61.50;;;;;;5061572;28;20461;-69
2023/05/25 05:07:06;;;;;;;8.77;4.10;;;24.40;61.50;;;;;;5052285;28;20464;-69
2023/05/25 05:09:35;;;;;;;3.70;3.33;;;24.40;61.60;;;;;;5064061;28;20891;-69
2023/05/25 05:12:05;;;;;;;4.87;3.43;;;24.40;61.70;;;;;;5040690;28;21269;-69
2023/05/25 05:14:41;;;;;;;4.33;3.93;;;24.40;61.70;;;;;;5059155;28;20454;-69
2023/05/25 05:17:10;;;;;;;4.30;4.00;;;24.40;61.80;;;;;;5064778;28;20476;-69
2023/05/25 05:19:39;;;;;;;5.80;4.17;;;24.40;61.80;;;;;;5051616;28;20551;-69
2023/05/25 05:22:12;;;;;;;5.60;3.83;;;24.40;61.80;;;;;;5044088;28;20618;-69
2023/05/25 05:24:40;;;;;;;4.17;3.80;;;24.40;61.90;;;;;;5048028;28;20470;-69
2023/05/25 05:27:11;;;;;;;3.70;3.10;;;24.40;61.90;;;;;;5059601;28;20482;-69
2023/05/25 05:29:45;;;;;;;6.10;3.70;;;24.40;61.90;;;;;;5064511;28;20522;-69
2023/05/25 05:32:14;;;;;;;7.17;4.07;;;24.40;62.00;;;;;;5046463;28;20985;-69
2023/05/25 05:34:42;;;;;;;4.70;3.70;;;24.50;62.10;;;;;;5052496;28;20514;-69
2023/05/25 05:37:23;;;;;;;6.23;4.37;;;24.50;62.10;;;;;;5039934;28;20482;-69
2023/05/25 05:39:52;;;;;;;4.07;3.70;;;24.50;62.10;;;;;;5042352;28;20464;-69
2023/05/25 05:42:21;;;;;;;6.00;4.57;;;24.50;62.10;;;;;;5047059;28;20959;-69
2023/05/25 05:44:50;;;;;;;4.47;4.07;;;24.50;62.10;;;;;;5036642;28;20469;-69
2023/05/25 05:47:18;;;;;;;4.53;3.73;;;24.50;62.20;;;;;;5046112;28;20471;-69
2023/05/25 05:49:47;;;;;;;5.07;4.57;;;24.50;62.20;;;;;;5048135;28;20451;-69
2023/05/25 05:52:15;;;;;;;5.33;4.63;;;24.50;62.20;;;;;;5048825;28;20471;-69
2023/05/25 05:54:43;;;;;;;5.63;4.83;;;24.50;62.20;;;;;;5066888;28;20447;-68
2023/05/25 05:57:14;;;;;;;4.70;4.30;;;24.50;62.20;;;;;;5069686;28;20487;-69
2023/05/25 05:59:42;;;;;;;4.47;4.07;;;24.50;62.20;;;;;;5056858;28;20463;-69
2023/05/25 06:02:12;;;;;;;5.67;4.63;;;24.50;62.20;;;;;;5053445;28;20470;-69
2023/05/25 06:04:40;;;;;;;4.47;4.00;;;24.50;62.20;;;;;;5041577;28;20458;-69
2023/05/25 06:07:08;;;;;;;4.73;4.27;;;24.50;62.20;;;;;;5071761;28;20455;-69
2023/05/25 06:09:37;;;;;;;4.03;3.63;;;24.50;62.20;;;;;;5053726;28;20473;-69
2023/05/25 06:12:06;;;;;;;4.70;4.30;;;24.50;62.20;;;;;;5053519;28;20461;-69
2023/05/25 06:14:35;;;;;;;7.40;4.30;;;24.50;62.10;;;;;;5051144;28;20462;-69
2023/05/25 06:17:05;;;;;;;6.80;4.33;;;24.50;62.10;;;;;;5071151;28;20481;-69
2023/05/25 06:19:35;;;;;;;4.90;4.33;;;24.50;62.10;;;;;;5055505;28;20976;-69
2023/05/25 06:22:04;;;;;;;5.70;4.13;;;24.50;62.10;;;;;;5054215;28;20472;-69
2023/05/25 06:24:32;;;;;;;5.67;3.80;;;24.50;62.10;;;;;;5065686;28;20452;-69
2023/05/25 06:27:02;;;;;;;4.30;3.90;;;24.50;62.10;;;;;;5062376;28;20504;-69
2023/05/25 06:29:30;;;;;;;5.40;4.37;;;24.50;62.00;;;;;;5058559;28;20504;-69
2023/05/25 06:31:59;;;;;;;4.73;4.17;;;24.60;62.00;;;;;;5051739;28;20466;-69
2023/05/25 06:34:27;;;;;;;5.10;4.17;;;24.60;62.00;;;;;;5054233;28;20863;-69
2023/05/25 06:36:57;;;;;;;4.73;4.20;;;24.60;62.00;;;;;;5052253;28;20955;-69
2023/05/25 06:39:26;;;;;;;5.30;4.40;;;24.60;62.00;;;;;;5053980;28;20464;-70
2023/05/25 06:41:54;;;;;;;4.73;4.33;;;24.60;62.00;;;;;;5053166;28;20823;-70
2023/05/25 06:44:33;;;;;;;4.80;4.33;;;24.60;61.90;;;;;;5061635;28;20464;-69
2023/05/25 06:47:02;;;;;;;5.73;4.57;;;24.60;61.90;;;;;;5068886;28;20453;-69
2023/05/25 06:49:31;;;;;;;5.40;4.40;;;24.60;61.80;;;;;;5055155;28;20480;-69
2023/05/25 06:52:01;;;;;;;4.47;4.17;;;24.60;61.80;;;;;;5071937;28;20855;-69
2023/05/25 06:54:29;;;;;;;5.00;4.60;;;24.70;61.80;;;;;;5070301;28;20450;-69
2023/05/25 06:56:57;;;;;;;4.90;4.20;;;24.70;61.80;;;;;;5071482;28;20962;-69
2023/05/25 06:59:26;;;;;;;3.97;3.67;;;24.70;61.80;;;;;;5069270;28;21016;-69
2023/05/25 07:01:54;;;;;;;7.13;3.93;;;24.70;61.70;;;;;;5071233;28;20481;-69
2023/05/25 07:04:23;;;;;;;4.53;4.13;;;24.70;61.70;;;;;;5067231;28;20465;-69
2023/05/25 07:06:52;;;;;;;6.67;4.10;;;24.70;61.70;;;;;;5068186;28;20467;-69
2023/05/25 07:09:21;;;;;;;4.80;4.40;;;24.70;61.70;;;;;;5074167;28;20473;-69
2023/05/25 07:11:49;;;;;;;4.57;4.27;;;24.70;61.50;;;;;;5071448;28;20540;-69
2023/05/25 07:14:18;;;;;;;4.57;4.27;;;24.70;61.50;;;;;;5051496;28;20856;-69
2023/05/25 07:16:46;;;;;;;4.80;4.40;;;24.70;61.50;;;;;;5071157;28;20467;-69
2023/05/25 07:19:15;;;;;;;3.90;3.60;;;24.70;61.50;;;;;;5071663;28;20842;-69
2023/05/25 07:21:43;;;;;;;4.13;3.83;;;24.70;61.60;;;;;;5070739;28;20872;-69
2023/05/25 07:24:11;;;;;;;4.03;3.73;;;24.70;61.60;;;;;;5070719;28;20527;-69
2023/05/25 07:26:43;;;;;;;4.37;3.97;;;24.70;61.60;;;;;;5070939;28;20499;-69
2023/05/25 07:29:11;;;;;;;4.63;4.07;;;24.80;61.60;;;;;;5078956;28;20464;-69
2023/05/25 07:31:39;;;;;;;4.00;3.70;;;24.80;61.50;;;;;;5073815;28;21049;-69
2023/05/25 07:34:08;;;;;;;5.77;3.83;;;24.80;61.60;;;;;;5074505;28;20522;-69
2023/05/25 07:36:36;;;;;;;3.90;3.60;;;24.80;61.50;;;;;;5073409;28;20452;-69
2023/05/25 07:39:05;;;;;;;4.40;4.10;;;24.80;61.50;;;;;;5053283;28;20966;-69
2023/05/25 07:41:33;;;;;;;4.50;4.10;;;24.80;61.50;;;;;;5070564;28;20465;-69
2023/05/25 07:44:03;;;;;;;4.60;4.20;;;24.80;61.50;;;;;;5067215;28;20490;-70
2023/05/25 07:46:31;;;;;;;3.67;3.37;;;24.80;61.50;;;;;;5061739;28;21025;-71
2023/05/25 07:49:02;;;;;;;4.30;4.00;;;24.80;61.50;;;;;;5077615;28;20961;-70
2023/05/25 07:51:31;;;;;;;4.93;4.23;;;24.80;61.50;;;;;;5070526;28;20452;-69
2023/05/25 07:54:00;;;;;;;4.77;4.37;;;24.80;61.50;;;;;;5070678;28;20456;-69
2023/05/25 07:56:28;;;;;;;4.97;4.57;;;24.80;61.50;;;;;;5072651;28;20973;-69
2023/05/25 07:58:56;;;;;;;4.33;4.03;;;24.80;61.50;;;;;;5069214;28;20464;-69
2023/05/25 08:01:26;;;;;;;4.80;4.30;;;24.80;61.50;;;;;;5070657;28;20455;-69
2023/05/25 08:03:54;;;;;;;4.87;4.13;;;24.90;61.50;;;;;;5064452;28;20554;-69
2023/05/25 08:06:23;;;;;;;4.53;4.13;;;24.90;61.50;;;;;;5062006;28;20458;-69
2023/05/25 08:08:51;;;;;;;5.33;4.83;;;24.90;61.40;;;;;;5063139;28;20964;-69
2023/05/25 08:11:24;;;;;;;4.67;4.30;;;24.90;61.40;;;;;;5077574;28;20466;-69
2023/05/25 08:13:52;;;;;;;4.93;4.50;;;24.90;61.40;;;;;;5059243;28;20556;-69
2023/05/25 08:16:20;;;;;;;4.43;4.03;;;24.90;61.40;;;;;;5070657;28;20462;-68
2023/05/25 08:18:50;;;;;;;4.50;4.10;;;24.90;61.40;;;;;;5071107;28;20504;-68
2023/05/25 08:21:18;;;;;;;4.40;4.07;;;24.90;61.40;;;;;;5068790;28;20796;-68
2023/05/25 08:23:46;;;;;;;4.43;3.73;;;24.90;61.40;;;;;;5075917;28;20490;-69
2023/05/25 08:26:15;;;;;;;4.27;3.93;;;24.90;61.40;;;;;;5070889;28;20459;-69
2023/05/25 08:29:04;;;;;;;4.47;4.13;;;24.90;61.40;;;;;;5061593;28;20456;-69
2023/05/25 08:31:32;;;;;;;4.20;3.90;;;25.00;61.30;;;;;;5069940;28;20455;-69
2023/05/25 08:34:02;;;;;;;4.10;3.70;;;25.00;61.30;;;;;;5070019;28;20534;-69
2023/05/25 08:36:33;;;;;;;4.70;4.30;;;25.00;61.30;;;;;;5073553;28;20531;-69
2023/05/25 08:39:01;;;;;;;5.03;4.47;;;25.00;61.30;;;;;;5060048;28;20526;-69
2023/05/25 08:41:30;;;;;;;5.20;4.70;;;25.00;61.20;;;;;;5070542;28;20463;-69
2023/05/25 08:44:04;;;;;;;5.50;5.00;;;25.00;61.20;;;;;;5069082;28;20456;-69
2023/05/25 08:46:33;;;;;;;4.50;4.10;;;25.00;61.20;;;;;;5062257;28;20455;-69
2023/05/25 08:49:08;;;;;;;4.83;3.90;;;25.00;61.20;;;;;;5069695;28;20451;-69
2023/05/25 08:51:39;;;;;;;4.70;4.30;;;25.00;61.10;;;;;;5068902;28;20535;-69
2023/05/25 08:54:10;;;;;;;4.53;4.13;;;25.10;61.10;;;;;;5061434;28;20524;-69
2023/05/25 08:56:44;;;;;;;4.10;3.80;;;25.10;61.10;;;;;;5069325;28;20451;-68
2023/05/25 08:59:25;;;;;;;4.33;3.93;;;25.10;61.00;;;;;;5061408;28;20464;-69
2023/05/25 09:01:58;;;;;;;5.33;4.83;;;25.10;61.00;;;;;;5070079;28;20457;-68
2023/05/25 09:04:29;;;;;;;4.30;4.00;;;25.10;60.90;;;;;;5065226;28;20460;-69
2023/05/25 09:06:58;;;;;;;4.40;4.00;;;25.10;60.90;;;;;;5068192;28;20452;-69
2023/05/25 09:09:39;;;;;;;5.33;4.27;;;25.10;60.90;;;;;;5069808;28;20815;-69
2023/05/25 09:12:08;;;;;;;4.30;3.90;;;25.10;60.90;;;;;;5063680;28;20456;-69
2023/05/25 09:14:44;;;;;;;5.27;4.70;;;25.10;60.90;;;;;;5067742;28;20870;-69
2023/05/25 09:17:13;;;;;;;4.43;4.03;;;25.20;60.80;;;;;;5064759;28;20477;-69
2023/05/25 09:19:43;;;;;;;4.63;4.30;;;25.20;60.80;;;;;;5069600;28;20500;-69
2023/05/25 09:22:11;;;;;;;4.20;3.90;;;25.20;60.80;;;;;;5068494;28;20458;-69
2023/05/25 09:24:44;;;;;;;4.63;4.23;;;25.20;60.80;;;;;;5060287;28;20493;-68
2023/05/25 09:27:17;;;;;;;5.23;4.73;;;25.20;60.80;;;;;;5068183;28;20521;-68
2023/05/25 09:29:47;;;;;;;5.60;4.20;;;25.20;60.90;;;;;;5059733;28;20457;-68
2023/05/25 09:32:15;;;;;;;4.20;3.87;;;25.20;61.00;;;;;;5068046;28;20452;-66
2023/05/25 09:34:46;;;;;;;4.70;4.30;;;25.20;61.10;;;;;;5071680;28;20701;-66
2023/05/25 09:37:17;;;;;;;4.97;4.57;;;25.20;61.10;;;;;;5070019;28;20490;-68
2023/05/25 09:39:47;;;;;;;5.00;4.60;;;25.20;61.20;;;;;;5071014;28;20875;-68
2023/05/25 09:42:17;;;;;;;4.57;4.17;;;25.30;61.10;;;;;;5072531;28;20464;-68
2023/05/25 09:44:45;;;;;;;4.80;4.00;;;25.30;61.20;;;;;;5073723;28;20948;-68
2023/05/25 09:47:15;;;;;;;5.07;4.60;;;25.30;61.30;;;;;;5072572;28;20503;-68
2023/05/25 09:49:48;;;;;;;4.73;4.27;;;25.30;61.20;;;;;;5065572;28;20462;-68
2023/05/25 09:52:16;;;;;;;4.60;4.27;;;25.30;61.20;;;;;;5074582;28;20960;-65
2023/05/25 09:54:46;;;;;;;5.30;4.90;;;25.30;61.20;;;;;;5065013;28;21022;-68
2023/05/25 09:57:15;;;;;;;5.67;4.63;;;25.30;61.20;;;;;;5072755;28;20501;-67
2023/05/25 09:59:44;;;;;;;4.20;3.90;;;25.30;61.20;;;;;;5072431;28;21209;-68
2023/05/25 10:02:12;;;;;;;4.57;4.17;;;25.40;61.20;;;;;;5072006;28;20489;-68
2023/05/25 10:04:41;;;;;;;5.40;4.90;;;25.40;61.20;;;;;;5072612;28;20458;-68
2023/05/25 10:07:11;;;;;;;4.80;4.40;;;25.40;61.10;;;;;;5062556;28;22228;-69
2023/05/25 10:09:41;;;;;;;4.53;4.23;;;25.40;61.10;;;;;;5061051;28;20476;-67
2023/05/25 10:12:11;;;;;;;4.67;4.20;;;25.40;61.00;;;;;;5060863;28;20453;-67
2023/05/25 10:14:41;;;;;;;5.03;4.63;;;25.50;61.00;;;;;;5063054;28;20463;-68
2023/05/25 10:17:11;;;;;;;4.50;4.10;;;25.50;61.10;;;;;;5059250;28;20456;-68
2023/05/25 10:19:44;;;;;;;4.63;4.13;;;25.50;61.10;;;;;;5068894;28;20477;-67
2023/05/25 10:22:20;;;;;;;4.80;4.40;;;25.50;61.00;;;;;;5058864;28;20460;-68
2023/05/25 10:24:54;;;;;;;4.60;4.20;;;25.50;61.00;;;;;;5067920;28;20460;-68
2023/05/25 10:27:25;;;;;;;5.00;4.50;;;25.50;61.00;;;;;;5068937;28;20535;-68
2023/05/25 10:29:57;;;;;;;4.63;4.23;;;25.50;60.90;;;;;;5068087;28;20516;-68
2023/05/25 10:32:25;;;;;;;5.10;4.60;;;25.50;60.90;;;;;;5069668;28;20461;-68
2023/05/25 10:34:56;;;;;;;4.43;4.13;;;25.60;60.90;;;;;;5064986;28;20453;-68
2023/05/25 10:37:30;;;;;;;4.67;4.37;;;25.60;60.80;;;;;;5065337;28;20454;-67
2023/05/25 10:39:59;;;;;;;4.20;3.90;;;25.60;60.90;;;;;;5049836;28;20474;-67
2023/05/25 10:42:28;;;;;;;5.60;4.77;;;25.60;60.80;;;;;;5064997;28;20455;-67
2023/05/25 10:44:57;;;;;;;4.63;4.23;;;25.60;60.80;;;;;;5065806;28;20452;-67
2023/05/25 10:47:26;;;;;;;4.93;4.53;;;25.60;60.80;;;;;;5069999;28;20494;-67
2023/05/25 10:49:57;;;;;;;4.90;4.50;;;25.70;60.70;;;;;;5069016;28;20485;-67
2023/05/25 10:52:29;;;;;;;4.93;4.53;;;25.70;60.60;;;;;;5068213;28;20478;-68
2023/05/25 10:55:00;;;;;;;4.17;3.87;;;25.70;60.70;;;;;;5066517;28;20453;-67
2023/05/25 10:57:29;;;;;;;4.80;4.40;;;25.70;60.50;;;;;;5065771;28;20457;-66
2023/05/25 11:00:05;;;;;;;4.97;4.57;;;25.70;60.40;;;;;;5062599;28;20475;-66
2023/05/25 11:02:49;;;;;;;4.60;4.30;;;25.70;60.40;;;;;;5061908;28;20536;-66
2023/05/25 11:05:34;;;;;;;4.50;4.20;;;25.70;60.40;;;;;;5064768;28;20513;-66
2023/05/25 11:08:05;;;;;;;4.47;4.10;;;25.70;60.30;;;;;;5068937;28;20492;-66
2023/05/25 11:10:43;;;;;;;4.60;4.20;;;25.80;60.30;;;;;;5070023;28;20464;-66
2023/05/25 11:13:38;;;;;;;6.60;4.57;;;25.70;60.20;;;;;;5066677;28;20454;-66
2023/05/25 11:16:34;;;;;;;5.00;4.63;;;25.70;60.20;;;;;;5057675;28;20537;-65
2023/05/25 11:19:03;;;;;;;6.20;4.20;;;25.70;60.20;;;;;;5068574;28;21017;-68
2023/05/25 11:21:42;;;;;;;4.77;4.33;;;25.70;60.20;;;;;;5065532;28;20487;-68
2023/05/25 11:24:17;;;;;;;5.00;4.50;;;25.70;60.30;;;;;;5056036;28;20457;-66
2023/05/25 11:26:56;;;;;;;5.43;5.03;;;25.80;60.20;;;;;;5056314;28;20500;-66
2023/05/25 11:29:25;;;;;;;5.57;5.10;;;25.80;60.20;;;;;;5042166;28;20575;-67
2023/05/25 11:31:55;;;;;;;4.27;3.97;;;25.70;60.20;;;;;;5056791;28;20458;-66
2023/05/25 11:34:25;;;;;;;4.63;4.27;;;25.70;60.20;;;;;;5063175;28;20453;-67
2023/05/25 11:37:00;;;;;;;5.47;4.50;;;25.80;60.20;;;;;;5070077;28;20472;-66
2023/05/25 11:39:30;;;;;;;4.60;4.30;;;25.70;60.20;;;;;;5069124;28;21121;-66
2023/05/25 11:42:03;;;;;;;5.10;4.70;;;25.70;60.20;;;;;;5045875;28;21023;-66
2023/05/25 11:44:33;;;;;;;4.70;4.30;;;25.70;60.20;;;;;;5056412;28;21273;-68
2023/05/25 11:47:07;;;;;;;6.43;4.90;;;25.70;60.20;;;;;;5060508;28;20459;-67
2023/05/25 11:49:38;;;;;;;4.10;3.80;;;25.80;60.20;;;;;;5056096;28;20458;-67
2023/05/25 11:52:07;;;;;;;5.20;4.80;;;25.70;60.20;;;;;;5059304;28;20461;-66
2023/05/25 11:54:39;;;;;;;5.63;5.00;;;25.70;60.20;;;;;;5065698;28;20523;-66
2023/05/25 11:57:15;;;;;;;5.63;4.60;;;25.70;60.30;;;;;;5064609;28;20491;-66
2023/05/25 11:59:48;;;;;;;5.47;4.97;;;25.70;60.30;;;;;;5065455;28;20456;-66
2023/05/25 12:02:17;;;;;;;4.83;4.50;;;25.70;60.30;;;;;;5069267;28;20466;-65
2023/05/25 12:04:54;;;;;;;4.50;4.10;;;25.70;60.30;;;;;;5058803;28;20516;-67
2023/05/25 12:07:23;;;;;;;4.47;4.17;;;25.70;60.30;;;;;;5052100;28;20471;-66
2023/05/25 12:10:04;;;;;;;4.77;4.37;;;25.70;60.30;;;;;;5050386;28;20920;-66
2023/05/25 12:12:38;;;;;;;5.10;4.70;;;25.70;60.30;;;;;;5061629;28;20471;-68
2023/05/25 12:15:09;;;;;;;4.93;4.53;;;25.80;60.50;;;;;;5054404;28;20889;-66
2023/05/25 12:17:40;;;;;;;6.83;5.10;;;25.90;60.50;;;;;;5060533;28;20537;-66
2023/05/25 12:20:10;;;;;;;5.13;4.63;;;25.90;60.50;;;;;;5068332;28;20481;-66
2023/05/25 12:22:39;;;;;;;4.73;4.40;;;26.00;60.40;;;;;;5063090;28;20473;-67
2023/05/25 12:25:11;;;;;;;5.83;5.33;;;26.10;60.30;;;;;;5048306;28;21039;-66
2023/05/25 12:27:40;;;;;;;5.90;5.30;;;26.20;60.20;;;;;;5055521;28;20855;-66
2023/05/25 12:30:10;;;;;;;5.30;4.80;;;26.40;60.00;;;;;;5055759;28;20472;-67
2023/05/25 12:32:53;;;;;;;5.10;4.53;;;26.60;59.60;;;;;;5057057;28;20805;-67
2023/05/25 12:35:22;;;;;;;6.13;4.57;;;26.80;59.20;;;;;;5064386;28;21037;-66
2023/05/25 12:37:50;;;;;;;4.40;4.00;;;26.90;59.00;;;;;;5057929;28;20463;-67
2023/05/25 12:40:23;;;;;;;4.20;3.80;;;27.00;58.80;;;;;;5052280;28;21574;-67
2023/05/25 12:42:57;;;;;;;4.10;3.80;;;27.10;58.70;;;;;;5053408;28;20464;-67
2023/05/25 12:45:26;;;;;;;6.30;4.23;;;27.20;58.60;;;;;;5063843;28;20454;-67
2023/05/25 12:47:55;;;;;;;3.70;3.40;;;27.20;58.50;;;;;;5064405;28;21050;-67
2023/05/25 12:50:23;;;;;;;4.23;3.83;;;27.20;58.50;;;;;;5066192;28;20467;-67
2023/05/25 12:52:51;;;;;;;5.10;4.43;;;27.30;58.50;;;;;;5059507;28;20966;-67
2023/05/25 12:55:28;;;;;;;3.90;3.60;;;27.30;58.50;;;;;;5061663;28;20460;-67
2023/05/25 12:57:57;;;;;;;4.70;4.17;;;27.30;58.50;;;;;;5068075;28;20455;-67
2023/05/25 13:00:27;;;;;;;4.67;4.27;;;27.30;58.60;;;;;;5062343;28;20485;-67
2023/05/25 13:02:55;;;;;;;4.30;3.90;;;27.30;58.60;;;;;;5064207;28;20462;-67
2023/05/25 13:05:26;;;;;;;4.93;4.00;;;27.40;58.60;;;;;;5048962;28;20849;-68